Time;durP1;ratioP1;P1;durP2;ratioP2;P2;SDS_P1;SDS_P2;PMS_P1;PMS_P2;Temp;Humidity;BMP_temperature;BMP_pressure;BME280_temperature;BME280_humidity;BME280_pressure;Samples;Min_cycle;Max_cycle;Signal;HPM_P1;HPM_P2
2021/09/23 00:00:28;;;;;;;4.15;1.23;;;12.80;86.00;;;;;;5050578;28;20044;-76
2021/09/23 00:05:27;;;;;;;4.95;1.30;;;12.90;85.90;;;;;;5048531;28;20060;-76
2021/09/23 00:07:56;;;;;;;5.57;1.48;;;12.90;85.90;;;;;;5046745;28;20496;-76
2021/09/23 00:10:30;;;;;;;7.78;1.23;;;12.90;85.80;;;;;;5052270;28;20494;-76
2021/09/23 00:12:59;;;;;;;4.03;1.40;;;12.90;85.80;;;;;;5053910;28;20128;-76
2021/09/23 00:15:27;;;;;;;3.95;1.02;;;12.80;85.90;;;;;;5053812;28;20053;-76
2021/09/23 00:18:01;;;;;;;1.90;1.20;;;12.80;86.00;;;;;;5052220;28;20056;-75
2021/09/23 00:20:32;;;;;;;6.57;1.50;;;12.80;86.20;;;;;;5047040;28;20048;-75
2021/09/23 00:23:00;;;;;;;4.35;1.40;;;12.70;86.30;;;;;;5034955;28;20053;-75
2021/09/23 00:25:27;;;;;;;6.07;1.77;;;12.70;86.40;;;;;;5033949;28;20060;-76
2021/09/23 00:28:03;;;;;;;4.97;1.30;;;12.60;86.50;;;;;;5033683;28;20060;-76
2021/09/23 00:30:31;;;;;;;7.38;1.77;;;12.60;86.80;;;;;;5035208;28;20506;-76
2021/09/23 00:33:09;;;;;;;7.32;1.67;;;12.50;86.90;;;;;;5017636;28;20068;-75
2021/09/23 00:35:37;;;;;;;5.35;1.55;;;12.50;87.00;;;;;;5032554;28;20042;-76
2021/09/23 00:38:05;;;;;;;4.05;1.70;;;12.50;87.10;;;;;;5037414;28;20048;-75
2021/09/23 00:40:32;;;;;;;6.22;1.50;;;12.50;87.10;;;;;;5035604;28;20052;-76
2021/09/23 00:43:01;;;;;;;9.88;1.65;;;12.50;87.20;;;;;;5035971;28;20045;-76
2021/09/23 00:45:29;;;;;;;5.60;1.83;;;12.50;87.30;;;;;;5051268;28;20052;-76
2021/09/23 00:47:57;;;;;;;8.05;1.75;;;12.50;87.40;;;;;;5039450;28;20049;-76
2021/09/23 00:50:25;;;;;;;6.78;1.70;;;12.50;87.40;;;;;;5032264;28;20041;-76
2021/09/23 00:53:00;;;;;;;4.82;1.30;;;12.50;87.60;;;;;;5034001;28;20053;-76
2021/09/23 00:55:29;;;;;;;6.38;1.60;;;12.70;87.60;;;;;;5033642;28;20046;-76
2021/09/23 00:58:00;;;;;;;6.78;1.67;;;12.80;87.50;;;;;;5033083;28;20049;-76
2021/09/23 01:00:29;;;;;;;10.13;1.98;;;12.80;87.50;;;;;;5033181;28;20046;-76
2021/09/23 01:03:12;;;;;;;6.88;1.67;;;12.90;87.40;;;;;;5032920;28;20522;-75
2021/09/23 01:05:41;;;;;;;6.50;1.30;;;13.00;87.20;;;;;;5015497;28;20049;-76
2021/09/23 01:08:12;;;;;;;8.38;1.30;;;13.20;87.20;;;;;;5033255;28;20049;-76
2021/09/23 01:10:40;;;;;;;3.50;1.00;;;13.30;87.10;;;;;;5023198;28;20050;-76
2021/09/23 01:13:08;;;;;;;5.90;1.50;;;13.30;86.90;;;;;;5028327;28;20064;-76
2021/09/23 01:16:05;;;;;;;4.35;1.08;;;13.40;86.70;;;;;;5033755;28;20055;-76
2021/09/23 01:18:59;;;;;;;5.85;1.40;;;13.60;86.50;;;;;;5018338;28;20064;-76
2021/09/23 01:21:31;;;;;;;3.80;0.90;;;13.70;86.20;;;;;;5048238;28;20390;-76
2021/09/23 01:23:59;;;;;;;6.28;1.17;;;13.80;86.00;;;;;;5031651;28;20045;-76
2021/09/23 01:26:29;;;;;;;5.85;1.33;;;13.80;85.80;;;;;;5035304;28;20052;-75
2021/09/23 01:29:15;;;;;;;5.18;1.10;;;13.80;85.70;;;;;;5051298;28;20060;-75
2021/09/23 01:31:51;;;;;;;6.88;1.38;;;13.80;85.70;;;;;;5016185;28;20057;-76
2021/09/23 01:34:20;;;;;;;6.07;1.15;;;13.80;85.60;;;;;;5034719;28;20049;-76
2021/09/23 01:36:48;;;;;;;8.45;1.63;;;13.90;85.60;;;;;;5051251;28;20053;-76
2021/09/23 01:39:20;;;;;;;4.15;1.10;;;13.90;85.60;;;;;;5051375;28;20045;-76
2021/09/23 01:41:49;;;;;;;5.45;1.27;;;14.00;85.60;;;;;;5047468;28;20044;-76
2021/09/23 01:44:24;;;;;;;5.40;1.17;;;14.00;85.50;;;;;;5032238;28;20049;-76
2021/09/23 01:46:52;;;;;;;4.72;1.02;;;14.00;85.50;;;;;;5032179;28;20391;-76
2021/09/23 01:49:25;;;;;;;;;;;14.10;85.50;;;;;;5015557;28;20053;-76
2021/09/23 01:51:52;;;;;;;9.13;1.35;;;14.00;85.50;;;;;;5031032;28;19920;-76
2021/09/23 01:54:24;;;;;;;4.15;1.20;;;14.10;85.60;;;;;;5031105;28;20045;-76
2021/09/23 01:56:53;;;;;;;5.85;1.20;;;14.10;85.60;;;;;;5015320;28;20045;-76
2021/09/23 01:59:24;;;;;;;4.43;1.20;;;14.10;85.60;;;;;;5043650;28;20380;-76
2021/09/23 02:02:00;;;;;;;9.05;1.52;;;14.20;85.60;;;;;;5031029;28;20446;-76
2021/09/23 02:04:28;;;;;;;6.72;1.05;;;14.20;85.60;;;;;;5014489;28;20406;-75
2021/09/23 02:06:56;;;;;;;4.43;1.48;;;14.20;85.60;;;;;;5032010;28;20049;-76
2021/09/23 02:09:24;;;;;;;7.10;1.10;;;14.30;85.50;;;;;;5032475;28;20058;-76
2021/09/23 02:11:52;;;;;;;9.23;1.50;;;14.30;85.40;;;;;;5051570;28;20060;-76
2021/09/23 02:14:20;;;;;;;3.78;1.00;;;14.30;85.30;;;;;;5050947;28;20055;-76
2021/09/23 02:16:49;;;;;;;6.15;1.23;;;14.30;85.20;;;;;;5036019;28;20495;-76
2021/09/23 02:19:39;;;;;;;6.88;1.65;;;14.30;85.20;;;;;;5030935;28;20413;-76
2021/09/23 02:22:07;;;;;;;3.13;0.80;;;14.30;85.20;;;;;;5031046;28;20045;-76
2021/09/23 02:24:35;;;;;;;8.32;2.08;;;14.40;85.10;;;;;;5043884;28;20045;-76
2021/09/23 02:27:05;;;;;;;4.20;1.20;;;14.30;85.10;;;;;;5050536;28;20052;-76
2021/09/23 02:29:34;;;;;;;6.15;1.20;;;14.40;85.20;;;;;;5052603;28;20041;-76
2021/09/23 02:32:03;;;;;;;5.22;1.10;;;14.40;85.20;;;;;;5052315;28;20041;-76
2021/09/23 02:34:31;;;;;;;5.20;1.02;;;14.40;85.20;;;;;;5051713;28;20060;-76
2021/09/23 02:36:59;;;;;;;5.30;1.35;;;14.40;85.20;;;;;;5033556;28;20072;-76
2021/09/23 02:39:27;;;;;;;4.80;1.10;;;14.50;85.20;;;;;;5051486;28;20044;-76
2021/09/23 02:41:55;;;;;;;3.35;0.80;;;14.50;85.20;;;;;;5050451;28;20069;-76
2021/09/23 02:44:23;;;;;;;7.57;1.30;;;14.60;85.20;;;;;;5034483;28;20050;-76
2021/09/23 02:46:50;;;;;;;7.57;1.13;;;14.60;85.00;;;;;;5046782;28;20482;-76
2021/09/23 02:49:18;;;;;;;12.38;1.83;;;14.60;85.00;;;;;;5037522;28;20041;-76
2021/09/23 02:51:46;;;;;;;6.05;1.10;;;14.70;84.90;;;;;;5036693;28;20391;-77
2021/09/23 02:54:13;;;;;;;8.02;1.50;;;14.70;84.80;;;;;;5054108;28;20045;-76
2021/09/23 02:56:41;;;;;;;5.70;1.00;;;14.70;84.80;;;;;;5025998;28;20050;-76
2021/09/23 02:59:09;;;;;;;5.85;0.95;;;14.80;84.80;;;;;;5034335;28;20636;-76
2021/09/23 03:01:36;;;;;;;5.75;1.35;;;14.80;84.80;;;;;;5033691;28;20041;-76
2021/09/23 03:04:04;;;;;;;8.63;1.23;;;14.70;84.90;;;;;;5034150;28;20120;-76
2021/09/23 03:06:32;;;;;;;5.65;1.23;;;14.70;85.00;;;;;;5044206;28;20053;-76
2021/09/23 03:08:59;;;;;;;7.75;1.23;;;14.70;85.00;;;;;;5034991;28;20049;-76
2021/09/23 03:11:29;;;;;;;6.47;1.52;;;14.70;85.20;;;;;;5025921;28;20432;-77
2021/09/23 03:13:57;;;;;;;6.22;1.50;;;14.60;85.20;;;;;;5033893;28;20063;-76
2021/09/23 03:16:24;;;;;;;6.40;1.40;;;14.60;85.30;;;;;;5035401;28;20052;-76
2021/09/23 03:18:52;;;;;;;8.23;1.38;;;14.60;85.40;;;;;;5016511;28;20045;-76
2021/09/23 03:21:20;;;;;;;13.95;1.63;;;14.60;85.50;;;;;;5032465;28;20044;-76
2021/09/23 03:23:48;;;;;;;6.97;1.40;;;14.60;85.70;;;;;;5031567;28;20045;-76
2021/09/23 03:26:15;;;;;;;5.22;1.10;;;14.60;85.70;;;;;;5031564;28;20049;-76
2021/09/23 03:28:43;;;;;;;8.77;1.50;;;14.60;85.50;;;;;;5046904;28;20033;-75
2021/09/23 03:31:11;;;;;;;5.80;1.45;;;14.70;85.50;;;;;;5020989;28;20120;-76
2021/09/23 03:33:39;;;;;;;3.97;0.73;;;14.80;85.30;;;;;;5032414;28;20049;-76
2021/09/23 03:36:06;;;;;;;3.33;1.15;;;14.80;85.10;;;;;;5033355;28;20475;-76
2021/09/23 03:38:34;;;;;;;3.65;1.00;;;14.90;84.90;;;;;;5032533;28;20045;-76
2021/09/23 03:41:01;;;;;;;4.50;0.80;;;14.90;84.80;;;;;;5038794;28;20053;-75
2021/09/23 03:43:29;;;;;;;6.75;1.15;;;14.90;84.70;;;;;;5034424;28;20435;-76
2021/09/23 03:45:58;;;;;;;8.15;1.23;;;15.00;84.70;;;;;;5017649;28;20407;-76
2021/09/23 03:48:26;;;;;;;5.18;1.10;;;14.90;84.70;;;;;;5036249;28;20463;-76
2021/09/23 03:50:54;;;;;;;7.32;1.45;;;14.90;84.80;;;;;;5018897;28;20041;-77
2021/09/23 03:53:21;;;;;;;5.10;0.98;;;14.90;84.90;;;;;;5034044;28;20045;-76
2021/09/23 03:55:49;;;;;;;2.42;0.95;;;14.90;85.00;;;;;;5033039;28;20487;-76
2021/09/23 03:58:17;;;;;;;10.07;1.25;;;14.90;85.10;;;;;;5034013;28;20494;-76
2021/09/23 04:00:44;;;;;;;3.55;1.05;;;14.90;85.10;;;;;;5039285;28;20047;-76
2021/09/23 04:03:12;;;;;;;5.30;1.00;;;14.90;85.30;;;;;;5052346;28;20049;-76
2021/09/23 04:05:40;;;;;;;6.43;1.15;;;14.90;85.40;;;;;;5051220;28;20053;-76
2021/09/23 04:08:10;;;;;;;2.60;1.10;;;14.80;85.50;;;;;;5026369;28;20040;-76
2021/09/23 04:10:37;;;;;;;4.78;1.05;;;14.80;85.60;;;;;;5052539;28;20060;-76
2021/09/23 04:13:05;;;;;;;7.30;0.90;;;14.70;85.80;;;;;;5035955;28;20041;-76
2021/09/23 04:15:33;;;;;;;4.43;0.93;;;14.60;86.00;;;;;;5043602;28;20330;-76
2021/09/23 04:18:03;;;;;;;4.63;1.05;;;14.50;86.30;;;;;;5036663;28;20050;-76
2021/09/23 04:20:31;;;;;;;8.88;1.25;;;14.50;86.50;;;;;;5032411;28;20045;-76
2021/09/23 04:22:59;;;;;;;7.18;1.20;;;14.40;86.60;;;;;;5032412;28;20391;-76
2021/09/23 04:25:27;;;;;;;8.00;1.58;;;14.30;87.00;;;;;;5032350;28;20049;-76
2021/09/23 04:27:55;;;;;;;3.67;1.05;;;14.30;87.20;;;;;;5043230;28;20052;-76
2021/09/23 04:30:23;;;;;;;3.72;0.88;;;14.30;87.20;;;;;;5050243;28;20056;-76
2021/09/23 04:32:50;;;;;;;4.72;1.00;;;14.40;87.20;;;;;;5052048;28;20057;-76
2021/09/23 04:35:18;;;;;;;5.10;1.13;;;14.40;87.30;;;;;;5051906;28;20401;-76
2021/09/23 04:37:45;;;;;;;5.88;1.77;;;14.40;87.10;;;;;;5051822;28;20045;-76
2021/09/23 04:40:14;;;;;;;4.93;1.10;;;14.50;87.10;;;;;;5051999;28;20056;-76
2021/09/23 04:42:42;;;;;;;3.78;1.30;;;14.50;87.30;;;;;;5032226;28;20483;-76
2021/09/23 04:45:11;;;;;;;7.40;1.50;;;14.50;87.40;;;;;;5031930;28;20052;-76
2021/09/23 04:47:43;;;;;;;;;;;14.50;87.40;;;;;;5050752;28;20037;-76
2021/09/23 04:50:11;;;;;;;5.10;1.25;;;14.50;87.50;;;;;;5046316;28;19932;-76
2021/09/23 04:52:39;;;;;;;3.10;1.10;;;14.50;87.50;;;;;;5048418;28;20041;-76
2021/09/23 04:55:07;;;;;;;4.15;1.13;;;14.50;87.60;;;;;;5026215;28;20483;-76
2021/09/23 04:57:35;;;;;;;9.10;1.55;;;14.50;87.80;;;;;;5030765;28;20048;-76
2021/09/23 05:00:06;;;;;;;7.30;1.20;;;14.50;88.00;;;;;;5013405;28;20048;-77
2021/09/23 05:02:37;;;;;;;7.68;1.23;;;14.60;88.00;;;;;;5039384;28;20037;-76
2021/09/23 05:05:06;;;;;;;4.95;1.08;;;14.60;88.00;;;;;;5052602;28;20191;-76
2021/09/23 05:07:36;;;;;;;4.90;1.10;;;14.60;88.10;;;;;;5029712;28;20482;-76
2021/09/23 05:10:06;;;;;;;4.32;1.25;;;14.70;88.10;;;;;;5029345;28;20060;-76
2021/09/23 05:12:34;;;;;;;8.25;1.67;;;14.70;88.10;;;;;;5030651;28;20368;-76
2021/09/23 05:15:02;;;;;;;3.60;1.20;;;14.70;88.20;;;;;;5033250;28;20041;-76
2021/09/23 05:17:30;;;;;;;2.63;0.90;;;14.70;88.30;;;;;;5032686;28;20045;-76
2021/09/23 05:19:57;;;;;;;7.38;1.45;;;14.70;88.50;;;;;;5031803;28;20041;-76
2021/09/23 05:22:27;;;;;;;5.03;1.10;;;14.80;88.60;;;;;;5031227;28;20545;-76
2021/09/23 05:24:55;;;;;;;4.82;1.27;;;14.80;88.50;;;;;;5032405;28;20049;-76
2021/09/23 05:27:23;;;;;;;7.07;1.05;;;14.80;88.70;;;;;;5046614;28;20049;-76
2021/09/23 05:29:51;;;;;;;5.60;1.10;;;14.80;88.80;;;;;;5029371;28;20049;-76
2021/09/23 05:32:18;;;;;;;3.20;0.85;;;14.80;88.80;;;;;;5062719;28;20482;-76
2021/09/23 05:34:47;;;;;;;3.72;0.93;;;14.80;88.90;;;;;;5044179;28;20055;-76
2021/09/23 05:37:15;;;;;;;4.63;1.15;;;14.80;89.00;;;;;;5045260;28;20053;-76
2021/09/23 05:39:42;;;;;;;4.22;0.93;;;14.80;88.90;;;;;;5051489;28;20041;-76
2021/09/23 05:42:10;;;;;;;2.72;0.82;;;14.90;89.00;;;;;;5050259;28;20072;-76
2021/09/23 05:44:38;;;;;;;2.75;1.17;;;14.90;89.10;;;;;;5031064;28;20053;-76
2021/09/23 05:47:06;;;;;;;8.90;1.30;;;14.90;89.00;;;;;;5041065;28;20049;-76
2021/09/23 05:49:35;;;;;;;5.88;1.30;;;14.90;89.00;;;;;;5049689;28;20056;-76
2021/09/23 05:52:03;;;;;;;4.13;1.33;;;14.90;89.10;;;;;;5050394;28;20052;-76
2021/09/23 05:54:31;;;;;;;3.35;1.20;;;14.90;89.10;;;;;;5050913;28;20372;-76
2021/09/23 05:56:58;;;;;;;7.13;1.25;;;14.80;89.30;;;;;;5051584;28;20462;-76
2021/09/23 05:59:29;;;;;;;5.45;1.23;;;14.80;89.40;;;;;;5050128;28;20033;-76
2021/09/23 06:01:57;;;;;;;5.40;1.58;;;14.70;89.60;;;;;;5050074;28;20049;-76
2021/09/23 06:04:25;;;;;;;5.35;1.42;;;14.80;89.70;;;;;;5051559;28;20037;-75
2021/09/23 06:06:53;;;;;;;3.97;1.23;;;14.70;89.80;;;;;;5049020;28;20045;-75
2021/09/23 06:09:23;;;;;;;21.05;2.33;;;14.80;90.00;;;;;;5041901;28;20037;-76
2021/09/23 06:11:51;;;;;;;5.30;1.40;;;14.70;89.90;;;;;;5040443;28;20049;-78
2021/09/23 06:14:18;;;;;;;8.57;1.50;;;14.70;90.10;;;;;;5044790;28;20523;-75
2021/09/23 06:16:46;;;;;;;38.85;2.50;;;14.70;90.20;;;;;;5071016;28;20375;-76
2021/09/23 06:19:14;;;;;;;79.63;6.60;;;14.70;90.20;;;;;;5072735;28;20053;-76
2021/09/23 06:21:41;;;;;;;21.08;2.50;;;14.80;90.30;;;;;;5072549;28;20438;-77
2021/09/23 06:24:09;;;;;;;11.73;1.88;;;14.80;90.40;;;;;;5070196;28;20059;-76
2021/09/23 06:26:36;;;;;;;41.53;3.58;;;14.80;90.40;;;;;;5037615;28;20075;-76
2021/09/23 06:29:08;;;;;;;32.90;3.10;;;14.90;90.40;;;;;;5056477;28;20056;-76
2021/09/23 06:31:36;;;;;;;17.08;2.35;;;14.90;90.50;;;;;;5051127;28;20053;-76
2021/09/23 06:34:04;;;;;;;33.00;3.15;;;14.90;90.40;;;;;;5050402;28;20053;-77
2021/09/23 06:36:33;;;;;;;13.45;1.90;;;14.90;90.50;;;;;;5040692;28;20148;-77
2021/09/23 06:39:03;;;;;;;20.23;2.90;;;14.90;90.60;;;;;;5030728;28;20488;-77
2021/09/23 06:41:32;;;;;;;25.95;2.15;;;14.90;90.70;;;;;;5016813;28;20053;-76
2021/09/23 06:44:02;;;;;;;24.60;3.15;;;15.00;90.70;;;;;;5050183;28;20041;-76
2021/09/23 06:46:30;;;;;;;14.30;2.40;;;15.00;90.60;;;;;;5041881;28;20061;-76
2021/09/23 06:48:58;;;;;;;20.15;3.00;;;15.10;90.70;;;;;;5069032;28;20044;-76
2021/09/23 06:51:27;;;;;;;18.38;2.60;;;15.10;90.70;;;;;;5047769;28;20033;-77
2021/09/23 06:54:08;;;;;;;20.90;3.00;;;15.10;90.70;;;;;;5048109;28;20057;-76
2021/09/23 06:56:36;;;;;;;8.90;2.30;;;15.20;90.70;;;;;;5034150;28;20395;-76
2021/09/23 06:59:04;;;;;;;17.35;2.35;;;15.30;90.50;;;;;;5034169;28;20053;-77
2021/09/23 07:01:36;;;;;;;23.17;3.28;;;15.30;90.40;;;;;;5039404;28;20046;-77
2021/09/23 07:04:22;;;;;;;14.52;3.17;;;15.30;90.30;;;;;;5056641;28;20047;-77
2021/09/23 07:07:10;;;;;;;30.48;4.80;;;15.40;90.10;;;;;;5052987;28;20525;-77
2021/09/23 07:09:46;;;;;;;16.92;2.67;;;15.40;90.00;;;;;;5048671;28;20041;-76
2021/09/23 07:12:21;;;;;;;13.57;2.20;;;15.50;89.90;;;;;;5043048;28;20399;-76
2021/09/23 07:14:49;;;;;;;9.20;2.15;;;15.40;89.80;;;;;;5049140;28;20033;-77
2021/09/23 07:17:17;;;;;;;14.85;2.35;;;15.40;89.90;;;;;;5034598;28;20057;-78
2021/09/23 07:19:45;;;;;;;8.38;1.95;;;15.40;89.90;;;;;;5051052;28;20046;-77
2021/09/23 07:22:12;;;;;;;5.72;1.98;;;15.40;90.10;;;;;;5055256;28;20053;-77
2021/09/23 07:24:43;;;;;;;7.50;1.67;;;15.40;90.10;;;;;;5053034;28;20041;-77
2021/09/23 07:27:12;;;;;;;6.53;1.80;;;15.40;90.10;;;;;;5053536;28;20049;-77
2021/09/23 07:29:40;;;;;;;9.30;1.98;;;15.40;90.00;;;;;;5054723;28;20498;-77
2021/09/23 07:32:09;;;;;;;16.10;2.47;;;15.40;90.00;;;;;;5037188;28;20045;-77
2021/09/23 07:34:38;;;;;;;9.38;1.60;;;15.40;90.00;;;;;;5037113;28;20075;-78
2021/09/23 07:37:05;;;;;;;9.35;1.80;;;15.40;90.00;;;;;;5054805;28;20072;-77
2021/09/23 07:39:34;;;;;;;7.18;1.45;;;15.50;90.00;;;;;;5052895;28;20040;-78
2021/09/23 07:42:03;;;;;;;9.45;2.35;;;15.50;89.90;;;;;;5053235;28;20053;-77
2021/09/23 07:44:32;;;;;;;6.57;1.50;;;15.60;89.80;;;;;;5054124;28;20695;-78
2021/09/23 07:47:00;;;;;;;9.80;1.70;;;15.60;89.70;;;;;;5033298;28;20049;-77
2021/09/23 07:49:28;;;;;;;7.28;1.70;;;15.60;89.50;;;;;;5033874;28;20050;-78
2021/09/23 07:51:55;;;;;;;5.20;1.42;;;15.70;89.50;;;;;;5049910;28;20046;-78
2021/09/23 07:54:23;;;;;;;21.05;2.55;;;15.70;89.40;;;;;;5034579;28;20303;-88
2021/09/23 07:56:51;;;;;;;5.00;1.20;;;15.80;89.30;;;;;;5033416;28;20049;-78
2021/09/23 07:59:19;;;;;;;5.05;1.23;;;15.80;89.20;;;;;;5034297;28;20048;-79
2021/09/23 08:01:47;;;;;;;12.50;1.80;;;15.90;89.00;;;;;;5033179;28;20046;-76
2021/09/23 08:04:15;;;;;;;7.05;1.63;;;16.00;88.80;;;;;;5048797;28;20072;-76
2021/09/23 08:06:44;;;;;;;9.18;2.15;;;16.00;88.50;;;;;;5030805;28;20163;-76
2021/09/23 08:09:12;;;;;;;11.73;1.55;;;16.00;88.30;;;;;;5032686;28;20045;-77
2021/09/23 08:11:40;;;;;;;10.85;1.75;;;16.00;88.30;;;;;;5032722;28;20050;-76
2021/09/23 08:14:22;;;;;;;8.88;1.85;;;16.00;88.30;;;;;;5048460;28;20049;-75
2021/09/23 08:17:17;;;;;;;6.13;1.50;;;16.00;88.20;;;;;;5034780;28;20526;-76
2021/09/23 08:20:18;;;;;;;8.73;1.40;;;16.00;88.20;;;;;;5009335;28;20050;-76
2021/09/23 08:22:47;;;;;;;4.30;1.20;;;16.00;88.00;;;;;;4993095;28;20058;-76
2021/09/23 08:25:14;;;;;;;27.00;2.63;;;16.10;88.00;;;;;;5009638;28;20443;-75
2021/09/23 08:27:42;;;;;;;24.73;2.58;;;16.10;87.90;;;;;;4993095;28;20527;-75
2021/09/23 08:30:11;;;;;;;11.00;1.48;;;16.20;87.80;;;;;;4992965;28;20054;-74
2021/09/23 08:32:40;;;;;;;7.97;1.50;;;16.30;87.50;;;;;;4993028;28;20366;-75
2021/09/23 08:35:08;;;;;;;28.42;2.33;;;16.40;87.10;;;;;;4979321;28;20566;-76
2021/09/23 08:37:38;;;;;;;7.13;1.50;;;16.60;86.80;;;;;;4995120;28;20080;-75
2021/09/23 08:40:11;;;;;;;2.38;1.00;;;16.80;86.60;;;;;;4995353;28;20053;-75
2021/09/23 08:42:40;;;;;;;4.57;1.10;;;16.80;85.90;;;;;;5011223;28;20058;-75
2021/09/23 08:45:11;;;;;;;4.90;0.70;;;17.00;85.40;;;;;;4994706;28;20052;-75
2021/09/23 08:47:40;;;;;;;2.35;0.75;;;17.10;84.40;;;;;;4995197;28;20050;-76
2021/09/23 08:50:12;;;;;;;3.70;1.05;;;17.20;83.60;;;;;;4978652;28;20133;-75
2021/09/23 08:52:45;;;;;;;5.63;0.60;;;17.30;83.40;;;;;;4995156;28;20053;-75
2021/09/23 08:55:27;;;;;;;7.32;1.05;;;17.40;82.20;;;;;;4998532;28;20057;-75
2021/09/23 08:58:03;;;;;;;5.18;0.50;;;17.50;81.30;;;;;;5048645;28;20407;-76
2021/09/23 09:00:35;;;;;;;3.15;0.75;;;17.60;80.60;;;;;;5015846;28;20042;-76
2021/09/23 09:03:10;;;;;;;6.75;0.70;;;17.60;80.00;;;;;;5048623;28;20399;-76
2021/09/23 09:05:57;;;;;;;6.18;1.33;;;17.70;79.50;;;;;;5031977;28;20398;-76
2021/09/23 09:08:34;;;;;;;8.27;0.70;;;17.80;79.10;;;;;;5031441;28;20072;-76
2021/09/23 09:11:10;;;;;;;2.58;0.77;;;17.80;78.60;;;;;;5032021;28;20045;-76
2021/09/23 09:13:43;;;;;;;3.92;0.80;;;17.90;76.90;;;;;;5032014;28;20046;-76
2021/09/23 09:16:14;;;;;;;14.70;1.88;;;18.00;76.50;;;;;;5031823;28;20411;-77
2021/09/23 09:18:50;;;;;;;4.85;1.02;;;18.10;76.10;;;;;;5031802;28;20037;-75
2021/09/23 09:21:20;;;;;;;4.57;0.77;;;18.30;76.10;;;;;;5015383;28;20099;-76
2021/09/23 09:24:01;;;;;;;3.53;0.95;;;18.30;74.70;;;;;;5031778;28;20506;-76
2021/09/23 09:26:32;;;;;;;3.17;0.90;;;18.50;74.20;;;;;;5031577;28;20049;-75
2021/09/23 09:29:05;;;;;;;3.50;0.82;;;18.60;73.60;;;;;;5014994;28;20049;-76
2021/09/23 09:31:45;;;;;;;3.33;1.00;;;18.70;73.70;;;;;;5031662;28;20054;-75
2021/09/23 09:34:13;;;;;;;5.53;1.10;;;18.80;73.60;;;;;;5047905;28;20049;-75
2021/09/23 09:36:52;;;;;;;4.18;0.82;;;18.70;73.50;;;;;;5014726;28;20050;-75
2021/09/23 09:39:23;;;;;;;3.35;0.80;;;18.40;73.50;;;;;;5015077;28;20052;-76
2021/09/23 09:41:53;;;;;;;8.35;1.10;;;18.30;74.10;;;;;;5031422;28;20053;-75
2021/09/23 09:44:21;;;;;;;3.03;0.90;;;18.10;74.80;;;;;;5031330;28;20052;-75
2021/09/23 09:46:53;;;;;;;2.38;1.05;;;18.10;75.10;;;;;;5031438;28;20057;-75
2021/09/23 09:49:24;;;;;;;2.58;0.70;;;18.10;75.10;;;;;;5047923;28;20422;-76
2021/09/23 09:52:00;;;;;;;2.22;0.90;;;18.10;74.00;;;;;;5047936;28;20060;-75
2021/09/23 09:54:32;;;;;;;2.40;0.82;;;18.10;74.20;;;;;;5047313;28;20172;-75
2021/09/23 09:57:06;;;;;;;4.22;0.65;;;18.10;73.90;;;;;;5031213;28;20041;-75
2021/09/23 09:59:40;;;;;;;3.25;0.80;;;18.10;72.00;;;;;;5047783;28;20526;-75
2021/09/23 10:02:11;;;;;;;3.65;0.50;;;18.00;70.90;;;;;;5031748;28;20427;-75
2021/09/23 10:04:42;;;;;;;4.30;0.60;;;17.90;70.80;;;;;;5014757;28;20052;-75
2021/09/23 10:07:11;;;;;;;4.60;1.00;;;17.80;71.10;;;;;;5031025;28;20057;-75
2021/09/23 10:09:44;;;;;;;2.58;0.80;;;17.80;71.60;;;;;;5047431;28;20046;-75
2021/09/23 10:12:14;;;;;;;3.75;0.80;;;17.80;71.70;;;;;;5030992;28;20073;-75
2021/09/23 10:14:44;;;;;;;3.45;0.88;;;17.90;71.40;;;;;;5047456;28;20049;-75
2021/09/23 10:17:14;;;;;;;5.97;1.13;;;17.90;71.40;;;;;;5031088;28;20052;-75
2021/09/23 10:19:43;;;;;;;5.40;1.00;;;17.90;71.70;;;;;;5047568;28;20041;-75
2021/09/23 10:22:13;;;;;;;5.07;1.08;;;17.90;71.80;;;;;;5014461;28;20499;-75
2021/09/23 10:24:45;;;;;;;4.57;1.20;;;18.00;71.50;;;;;;5030795;28;20041;-76
2021/09/23 10:30:02;;;;;;;6.63;1.27;;;18.10;71.20;;;;;;5030895;28;20049;-76
2021/09/23 10:32:31;;;;;;;5.55;0.90;;;18.20;70.50;;;;;;5030803;28;20046;-75
2021/09/23 10:35:00;;;;;;;6.15;1.02;;;18.30;70.10;;;;;;5047337;28;20049;-76
2021/09/23 10:37:29;;;;;;;4.45;1.20;;;18.40;70.00;;;;;;5030647;28;20046;-75
2021/09/23 10:39:59;;;;;;;6.32;1.00;;;18.60;69.80;;;;;;5030811;28;20128;-76
2021/09/23 10:42:28;;;;;;;5.47;0.90;;;18.70;69.60;;;;;;5031954;28;20052;-76
2021/09/23 10:44:57;;;;;;;6.22;1.23;;;18.80;68.10;;;;;;5030785;28;20597;-75
2021/09/23 10:47:32;;;;;;;3.20;0.80;;;18.80;67.60;;;;;;5032854;28;20049;-75
2021/09/23 10:50:05;;;;;;;4.97;1.35;;;18.80;67.40;;;;;;5034553;28;20042;-75
2021/09/23 10:52:35;;;;;;;4.95;1.00;;;18.70;67.90;;;;;;5034487;28;20406;-75
2021/09/23 10:55:05;;;;;;;3.35;0.95;;;18.80;68.10;;;;;;5034610;28;20050;-75
2021/09/23 10:57:34;;;;;;;4.00;0.90;;;19.00;67.90;;;;;;5051144;28;20057;-75
2021/09/23 11:00:07;;;;;;;12.05;1.40;;;19.20;66.90;;;;;;5018317;28;20503;-76
2021/09/23 11:02:35;;;;;;;7.28;1.23;;;19.20;65.30;;;;;;5035442;28;20068;-75
2021/09/23 11:05:11;;;;;;;2.88;0.82;;;19.10;65.20;;;;;;5017857;28;20056;-75
2021/09/23 11:07:42;;;;;;;4.10;1.00;;;19.00;65.50;;;;;;5034195;28;20037;-76
2021/09/23 11:10:12;;;;;;;8.07;1.23;;;19.00;65.00;;;;;;5050562;28;20041;-76
2021/09/23 11:12:43;;;;;;;4.60;1.08;;;18.90;64.90;;;;;;5034398;28;20061;-76
2021/09/23 11:15:14;;;;;;;5.80;1.10;;;18.80;65.70;;;;;;5001754;28;20419;-76
2021/09/23 11:17:44;;;;;;;7.72;1.40;;;18.80;65.50;;;;;;5050889;28;20045;-76
2021/09/23 11:20:33;;;;;;;4.22;0.93;;;18.80;65.00;;;;;;5050779;28;20045;-76
2021/09/23 11:23:05;;;;;;;4.38;1.08;;;18.80;64.90;;;;;;5050169;28;20144;-76
2021/09/23 11:25:55;;;;;;;7.85;1.60;;;18.70;64.80;;;;;;5050473;28;20056;-76
2021/09/23 11:28:25;;;;;;;10.20;1.20;;;18.60;64.90;;;;;;5034017;28;20049;-77
2021/09/23 11:30:55;;;;;;;11.68;1.27;;;18.60;64.90;;;;;;5050432;28;20052;-76
2021/09/23 11:33:24;;;;;;;6.13;0.90;;;18.60;65.20;;;;;;5017401;28;20049;-76
2021/09/23 11:35:53;;;;;;;9.50;1.58;;;18.80;64.60;;;;;;5033695;28;20045;-76
2021/09/23 11:38:25;;;;;;;14.70;1.80;;;18.90;64.10;;;;;;5050403;28;20045;-76
2021/09/23 11:40:58;;;;;;;8.73;1.40;;;19.00;62.80;;;;;;5017811;28;20057;-76
2021/09/23 11:43:30;;;;;;;17.77;1.35;;;19.10;62.40;;;;;;5033515;28;20042;-76
2021/09/23 11:46:01;;;;;;;8.13;1.30;;;19.20;61.70;;;;;;5050129;28;20066;-76
2021/09/23 11:48:35;;;;;;;5.22;1.30;;;19.30;61.40;;;;;;5033681;28;20041;-75
2021/09/23 11:51:14;;;;;;;9.32;1.40;;;19.40;60.90;;;;;;5017855;28;20199;-76
2021/09/23 11:53:51;;;;;;;6.38;1.63;;;19.50;59.60;;;;;;5016905;28;20056;-76
2021/09/23 11:56:20;;;;;;;6.55;1.08;;;19.50;59.40;;;;;;5049849;28;20054;-76
2021/09/23 11:58:49;;;;;;;7.68;1.40;;;19.50;59.30;;;;;;5032768;28;20048;-76
2021/09/23 12:01:26;;;;;;;7.93;1.60;;;19.60;59.50;;;;;;5001545;28;20050;-76
2021/09/23 12:03:55;;;;;;;8.68;1.45;;;19.90;59.40;;;;;;5033815;28;20045;-76
2021/09/23 12:06:26;;;;;;;13.63;1.73;;;20.10;58.70;;;;;;5049100;28;20046;-76
2021/09/23 12:09:09;;;;;;;9.35;1.92;;;20.40;58.60;;;;;;5016897;28;20045;-76
2021/09/23 12:11:37;;;;;;;;;;;21.00;58.50;;;;;;5000939;28;20411;-76
2021/09/23 12:14:16;;;;;;;9.27;1.88;;;21.70;57.10;;;;;;5033047;28;19928;-76
2021/09/23 12:16:45;;;;;;;9.82;2.03;;;22.10;55.20;;;;;;5049659;28;20049;-76
2021/09/23 12:19:18;;;;;;;14.05;2.10;;;22.30;54.50;;;;;;5016525;28;20051;-76
2021/09/23 12:21:52;;;;;;;11.23;1.67;;;22.60;53.90;;;;;;5032889;28;20052;-77
2021/09/23 12:24:42;;;;;;;15.98;2.20;;;22.80;53.30;;;;;;5016728;28;20053;-77
2021/09/23 12:27:38;;;;;;;7.00;1.60;;;23.00;51.50;;;;;;5031950;28;20049;-76
2021/09/23 12:30:06;;;;;;;9.25;1.98;;;23.00;51.80;;;;;;5032768;28;20057;-76
2021/09/23 12:32:46;;;;;;;13.90;1.90;;;22.90;51.60;;;;;;5016253;28;20050;-76
2021/09/23 12:35:16;;;;;;;11.35;1.90;;;23.00;51.60;;;;;;5016223;28;20414;-76
2021/09/23 12:37:45;;;;;;;13.27;1.88;;;23.10;51.40;;;;;;5016321;28;20054;-76
2021/09/23 12:40:39;;;;;;;10.65;1.70;;;23.00;51.20;;;;;;5033382;28;20068;-75
2021/09/23 12:43:15;;;;;;;17.33;2.03;;;22.80;49.60;;;;;;5032656;28;20053;-77
2021/09/23 12:45:44;;;;;;;12.77;2.20;;;22.70;50.20;;;;;;5032269;28;20046;-75
2021/09/23 12:48:15;;;;;;;10.90;1.70;;;22.80;49.70;;;;;;5032377;28;20057;-76
2021/09/23 12:50:46;;;;;;;9.52;1.83;;;23.20;49.90;;;;;;5049223;28;20053;-75
2021/09/23 12:53:19;;;;;;;10.68;1.75;;;23.50;48.20;;;;;;5015948;28;20060;-75
2021/09/23 12:55:48;;;;;;;11.52;2.10;;;23.60;48.00;;;;;;5048994;28;20383;-76
2021/09/23 12:58:20;;;;;;;8.20;1.60;;;23.80;47.70;;;;;;5032311;28;20046;-75
2021/09/23 13:00:49;;;;;;;14.05;2.13;;;23.80;46.70;;;;;;5033343;28;20061;-75
2021/09/23 13:03:18;;;;;;;8.13;1.70;;;23.70;46.80;;;;;;5031950;28;20049;-76
2021/09/23 13:06:09;;;;;;;10.55;2.20;;;23.70;47.20;;;;;;5034671;28;20046;-75
2021/09/23 13:08:54;;;;;;;11.55;2.33;;;23.70;47.60;;;;;;5031996;28;20046;-75